createdAt,value
2022-08-17T00:00:34.404Z,12.40
2022-08-17T00:03:50.255Z,12.00
2022-08-17T00:06:57.609Z,11.50
2022-08-17T00:09:53.436Z,12.40
2022-08-17T00:13:37.046Z,12.80
2022-08-17T00:16:56.345Z,11.80
2022-08-17T00:19:50.342Z,12.80
2022-08-17T00:22:39.717Z,12.50
2022-08-17T00:25:57.265Z,11.60
2022-08-17T00:28:55.383Z,12.40
2022-08-17T00:33:14.306Z,12.40
2022-08-17T00:35:40.143Z,12.80
2022-08-17T00:38:30.489Z,12.70
2022-08-17T00:41:21.038Z,12.70
2022-08-17T00:44:36.131Z,13.40
2022-08-17T00:47:40.246Z,12.60
2022-08-17T00:50:34.859Z,13.60
2022-08-17T00:53:38.920Z,12.30
2022-08-17T00:56:50.171Z,12.90
2022-08-17T00:59:47.114Z,12.90
2022-08-17T01:03:07.578Z,12.10
2022-08-17T01:06:01.620Z,12.80
2022-08-17T01:09:03.483Z,13.70
2022-08-17T01:11:52.186Z,12.90
2022-08-17T01:14:56.372Z,13.20
2022-08-17T01:18:06.371Z,13.60
2022-08-17T01:20:56.025Z,14.10
2022-08-17T01:23:49.349Z,13.00
2022-08-17T01:26:41.879Z,13.30
2022-08-17T01:29:38.694Z,12.50
2022-08-17T01:32:35.709Z,14.60
2022-08-17T01:35:32.505Z,13.60
2022-08-17T01:38:27.004Z,12.50
2022-08-17T01:41:26.099Z,13.20
2022-08-17T01:44:37.393Z,12.70
2022-08-17T01:47:38.868Z,12.60
2022-08-17T01:50:40.355Z,13.60
2022-08-17T01:53:51.940Z,13.50
2022-08-17T01:56:55.372Z,14.10
2022-08-17T02:00:13.136Z,14.30
2022-08-17T02:03:09.033Z,13.70
2022-08-17T02:06:27.672Z,13.80
2022-08-17T02:09:19.520Z,15.30
2022-08-17T02:12:39.845Z,14.00
2022-08-17T02:15:44.341Z,14.50
2022-08-17T02:18:58.031Z,13.40
2022-08-17T02:22:10.816Z,15.40
2022-08-17T02:25:12.467Z,14.30
2022-08-17T02:27:58.520Z,14.90
2022-08-17T02:31:01.977Z,14.80
2022-08-17T02:34:17.429Z,15.10
2022-08-17T02:37:19.224Z,16.30
2022-08-17T02:40:35.703Z,15.70
2022-08-17T02:43:39.933Z,13.90
2022-08-17T02:46:32.129Z,14.90
2022-08-17T02:49:21.041Z,14.40
2022-08-17T02:52:42.413Z,13.10
2022-08-17T02:56:05.765Z,14.30
2022-08-17T02:59:00.478Z,13.90
2022-08-17T03:02:16.824Z,15.50
2022-08-17T03:05:13.682Z,15.30
2022-08-17T03:08:24.165Z,15.40
2022-08-17T03:11:21.165Z,15.90
2022-08-17T03:14:40.730Z,13.60
2022-08-17T03:17:29.854Z,14.70
2022-08-17T03:20:45.382Z,16.30
2022-08-17T03:23:42.830Z,16.20
2022-08-17T03:26:35.540Z,15.10
2022-08-17T03:29:46.885Z,15.90
2022-08-17T03:32:42.069Z,14.20
2022-08-17T03:36:06.652Z,15.10
2022-08-17T03:39:21.356Z,14.00
2022-08-17T03:42:31.900Z,14.80
2022-08-17T03:45:47.070Z,15.50
2022-08-17T03:49:21.336Z,15.90
2022-08-17T03:52:45.547Z,15.30
2022-08-17T03:56:17.561Z,14.50
2022-08-17T03:59:30.854Z,15.70
2022-08-17T04:02:27.196Z,15.50
2022-08-17T04:05:27.985Z,16.40
2022-08-17T04:08:31.871Z,15.20
2022-08-17T04:11:24.197Z,15.60
2022-08-17T04:14:13.275Z,18.30
2022-08-17T04:16:56.891Z,15.50
2022-08-17T04:20:06.868Z,17.60
2022-08-17T04:23:35.066Z,17.10
2022-08-17T04:26:53.300Z,16.60
2022-08-17T04:29:50.870Z,18.40
2022-08-17T04:33:03.471Z,18.30
2022-08-17T04:36:05.470Z,18.00
2022-08-17T04:38:51.534Z,18.40
2022-08-17T04:41:56.294Z,16.40
2022-08-17T04:44:51.163Z,16.70
2022-08-17T04:47:42.470Z,18.20
2022-08-17T04:50:25.770Z,18.30
2022-08-17T04:53:08.991Z,19.20
2022-08-17T04:55:53.437Z,19.00
2022-08-17T04:58:39.184Z,27.50
2022-08-17T05:01:28.229Z,29.50
2022-08-17T05:04:33.099Z,28.70
2022-08-17T05:07:23.065Z,31.00
2022-08-17T05:10:07.831Z,28.40
2022-08-17T05:13:09.595Z,27.70
2022-08-17T05:16:05.560Z,30.50
2022-08-17T05:18:51.907Z,29.00
2022-08-17T05:21:43.654Z,26.60
2022-08-17T05:24:39.129Z,26.80
2022-08-17T05:27:29.368Z,24.00
2022-08-17T05:30:18.986Z,22.60
2022-08-17T05:33:06.581Z,20.00
2022-08-17T05:35:51.551Z,19.50
2022-08-17T05:38:42.244Z,19.50
2022-08-17T05:41:27.983Z,18.20
2022-08-17T05:44:11.190Z,18.60
2022-08-17T05:46:59.921Z,19.10
2022-08-17T06:08:37.660Z,15.10
2022-08-17T06:11:45.641Z,15.30
2022-08-17T06:15:12.841Z,16.40
2022-08-17T06:18:20.498Z,15.70
2022-08-17T06:21:06.898Z,12.80
2022-08-17T06:24:31.717Z,15.40
2022-08-17T06:27:36.897Z,13.00
2022-08-17T06:31:00.815Z,13.40
2022-08-17T06:33:47.600Z,13.30
2022-08-17T06:37:05.123Z,13.30
2022-08-17T06:40:37.853Z,12.60
2022-08-17T06:43:35.614Z,12.60
2022-08-17T06:50:36.795Z,13.20
2022-08-17T06:53:30.606Z,12.70
2022-08-17T06:56:53.119Z,11.40
2022-08-17T06:59:55.742Z,12.70
2022-08-17T07:02:52.720Z,11.50
2022-08-17T07:05:44.498Z,12.00
2022-08-17T07:08:46.010Z,12.90
2022-08-17T07:11:48.390Z,12.10
2022-08-17T07:14:37.972Z,12.50
2022-08-17T07:17:46.793Z,12.60
2022-08-17T07:20:31.449Z,11.60
2022-08-17T07:23:34.624Z,11.50
2022-08-17T07:26:17.717Z,12.00
2022-08-17T07:29:02.409Z,12.40
2022-08-17T07:31:46.108Z,12.30
2022-08-17T07:34:51.944Z,12.00
2022-08-17T07:37:38.894Z,12.10
2022-08-17T07:41:01.586Z,11.60
2022-08-17T07:43:52.375Z,12.10
2022-08-17T07:47:06.831Z,12.10
2022-08-17T07:49:52.744Z,13.60
2022-08-17T07:52:50.251Z,12.10
2022-08-17T07:55:40.610Z,11.60
2022-08-17T07:58:24.239Z,12.90
2022-08-17T08:01:15.366Z,12.30
2022-08-17T08:04:29.160Z,12.30
2022-08-17T08:07:30.547Z,11.40
2022-08-17T08:10:26.179Z,11.50
2022-08-17T08:13:14.698Z,11.80
2022-08-17T08:16:24.607Z,13.20
2022-08-17T08:19:08.408Z,11.50
2022-08-17T08:22:21.516Z,10.90
2022-08-17T08:25:42.143Z,10.60
2022-08-17T08:28:40.117Z,10.70
2022-08-17T08:31:44.164Z,9.90
2022-08-17T08:35:01.644Z,9.80
2022-08-17T08:38:07.661Z,10.50
2022-08-17T08:41:16.479Z,10.40
2022-08-17T08:44:08.127Z,9.90
2022-08-17T08:47:05.535Z,9.50
2022-08-17T08:50:38.265Z,9.20
2022-08-17T08:53:41.825Z,9.60
2022-08-17T08:57:22.332Z,9.50
2022-08-17T09:00:04.952Z,9.30
2022-08-17T09:03:43.787Z,8.70
2022-08-17T09:06:47.176Z,9.30
2022-08-17T09:09:43.098Z,8.50
2022-08-17T09:12:48.679Z,9.10
2022-08-17T09:15:39.531Z,9.20
2022-08-17T09:19:03.286Z,8.60
2022-08-17T09:21:33.834Z,8.70
2022-08-17T09:24:28.418Z,9.30
2022-08-17T09:27:22.387Z,9.10
2022-08-17T09:30:09.839Z,9.20
2022-08-17T09:33:07.167Z,8.70
2022-08-17T09:35:59.216Z,8.30
2022-08-17T09:38:49.173Z,8.80
2022-08-17T09:42:10.588Z,8.10
2022-08-17T09:45:04.194Z,8.10
2022-08-17T09:48:05.690Z,8.20
2022-08-17T09:54:01.741Z,7.10
2022-08-17T09:57:31.606Z,6.60
2022-08-17T10:00:30.798Z,6.80
2022-08-17T10:03:28.279Z,7.00
2022-08-17T10:06:22.201Z,7.20
2022-08-17T10:09:22.560Z,6.10
2022-08-17T10:12:20.389Z,6.40
2022-08-17T10:15:24.891Z,6.60
2022-08-17T10:18:25.530Z,5.80
2022-08-17T10:21:35.974Z,6.30
2022-08-17T10:25:23.088Z,7.30
2022-08-17T10:28:04.653Z,7.00
2022-08-17T10:31:16.610Z,6.90
2022-08-17T10:34:28.887Z,7.00
2022-08-17T10:37:46.675Z,6.50
2022-08-17T10:40:36.405Z,7.50
2022-08-17T10:43:40.219Z,6.90
2022-08-17T10:46:42.415Z,6.60
2022-08-17T10:49:47.916Z,7.30
2022-08-17T10:52:31.496Z,6.90
2022-08-17T10:55:18.230Z,6.20
2022-08-17T10:58:24.509Z,6.80
2022-08-17T11:01:12.750Z,6.20
2022-08-17T11:04:03.738Z,5.60
2022-08-17T11:07:17.909Z,5.90
2022-08-17T11:10:24.578Z,6.60
2022-08-17T11:13:38.723Z,6.80
2022-08-17T11:16:40.087Z,7.10
2022-08-17T11:22:55.780Z,6.90
2022-08-17T11:26:26.640Z,7.30
2022-08-17T11:29:29.374Z,6.80
2022-08-17T11:32:54.763Z,6.50
2022-08-17T11:35:51.503Z,5.90
2022-08-17T11:39:03.692Z,6.40
2022-08-17T11:42:08.978Z,7.00
2022-08-17T11:44:54.860Z,6.40
2022-08-17T11:48:26.644Z,7.30
2022-08-17T11:51:31.355Z,6.70
2022-08-17T11:54:34.566Z,6.70
2022-08-17T11:57:27.383Z,6.30
2022-08-17T12:00:45.280Z,6.30
2022-08-17T12:03:31.902Z,6.40
2022-08-17T12:06:33.573Z,5.90
2022-08-17T12:09:25.009Z,5.40
2022-08-17T12:12:16.931Z,6.00
2022-08-17T12:15:10.940Z,6.40
2022-08-17T12:17:57.170Z,6.10
2022-08-17T12:20:44.217Z,6.10
2022-08-17T12:24:01.543Z,6.20
2022-08-17T12:26:52.485Z,7.50
2022-08-17T12:29:38.655Z,7.00
2022-08-17T12:32:25.612Z,6.40
2022-08-17T12:35:29.716Z,6.10
2022-08-17T12:38:26.840Z,6.50
2022-08-17T12:44:21.893Z,6.80
2022-08-17T12:47:26.090Z,6.20
2022-08-17T12:50:29.259Z,5.90
2022-08-17T12:53:46.409Z,6.50
2022-08-17T12:56:38.164Z,6.60
2022-08-17T12:59:43.112Z,6.90
2022-08-17T13:03:02.162Z,7.10
2022-08-17T13:06:07.769Z,6.30
2022-08-17T13:09:41.867Z,7.40
2022-08-17T13:12:53.132Z,6.90
2022-08-17T13:16:39.896Z,6.80
2022-08-17T13:19:49.743Z,6.30
2022-08-17T13:23:22.719Z,6.80
2022-08-17T13:27:02.142Z,6.90
2022-08-17T13:30:34.046Z,6.60
2022-08-17T13:33:59.427Z,6.70
2022-08-17T13:37:38.036Z,7.10
2022-08-17T13:40:36.018Z,6.70
2022-08-17T13:44:11.925Z,6.30
2022-08-17T13:47:00.901Z,6.70
2022-08-17T13:50:24.561Z,6.50
2022-08-17T13:53:45.975Z,6.40
2022-08-17T13:57:13.703Z,6.60
2022-08-17T14:00:35.565Z,6.00
2022-08-17T14:03:51.395Z,5.90
2022-08-17T14:07:34.419Z,6.30
2022-08-17T14:10:43.528Z,6.40
2022-08-17T14:13:30.186Z,6.20
2022-08-17T14:16:42.073Z,5.60
2022-08-17T14:19:32.526Z,5.90
2022-08-17T14:22:49.500Z,6.70
2022-08-17T14:25:33.028Z,5.90
2022-08-17T14:28:18.325Z,5.60
2022-08-17T14:31:22.118Z,5.90
2022-08-17T14:34:06.573Z,5.40
2022-08-17T14:36:51.525Z,6.20
2022-08-17T14:39:34.851Z,6.00
2022-08-17T14:42:24.827Z,6.20
2022-08-17T14:45:29.895Z,6.80
2022-08-17T14:48:16.093Z,6.60
2022-08-17T14:51:23.449Z,6.20
2022-08-17T14:54:34.111Z,6.40
2022-08-17T14:57:44.432Z,5.80
2022-08-17T15:00:52.630Z,6.60
2022-08-17T15:03:59.468Z,6.70
2022-08-17T15:07:00.387Z,6.10
2022-08-17T15:10:04.525Z,7.30
2022-08-17T15:13:15.954Z,7.40
2022-08-17T15:16:02.986Z,5.90
2022-08-17T15:18:51.078Z,6.40
2022-08-17T15:21:50.107Z,7.10
2022-08-17T15:28:32.456Z,6.80
2022-08-17T15:32:00.822Z,7.20
2022-08-17T15:35:05.846Z,7.60
2022-08-17T15:37:52.651Z,7.90
2022-08-17T15:40:59.171Z,7.30
2022-08-17T15:43:58.805Z,7.20
2022-08-17T15:46:47.274Z,9.10
2022-08-17T15:52:52.233Z,6.70
2022-08-17T15:55:49.303Z,6.60
2022-08-17T15:59:06.092Z,5.80
2022-08-17T16:03:09.853Z,6.60
2022-08-17T16:05:46.621Z,7.40
2022-08-17T16:08:45.092Z,6.50
2022-08-17T16:11:32.497Z,6.80
2022-08-17T16:14:38.351Z,6.60
2022-08-17T16:17:38.935Z,6.30
2022-08-17T16:20:36.729Z,6.70
2022-08-17T16:23:34.281Z,6.90
2022-08-17T16:27:12.498Z,5.70
2022-08-17T16:30:58.498Z,6.50
2022-08-17T16:34:01.048Z,6.90
2022-08-17T16:37:18.611Z,6.90
2022-08-17T16:40:11.633Z,6.10
2022-08-17T16:43:37.202Z,7.10
2022-08-17T16:47:06.829Z,6.10
2022-08-17T16:50:36.022Z,7.00
2022-08-17T16:53:59.295Z,7.00
2022-08-17T16:56:50.890Z,7.60
2022-08-17T17:00:21.284Z,11.60
2022-08-17T17:03:20.402Z,9.20
2022-08-17T17:06:40.690Z,8.30
2022-08-17T17:09:46.509Z,8.70
2022-08-17T17:13:08.502Z,8.50
2022-08-17T17:16:38.398Z,10.20
2022-08-17T17:19:54.554Z,18.10
2022-08-17T17:26:24.661Z,13.50
2022-08-17T17:29:26.909Z,15.70
2022-08-17T17:32:37.825Z,9.80
2022-08-17T17:35:47.639Z,10.20
2022-08-17T17:39:35.097Z,8.70
2022-08-17T17:42:35.369Z,11.50
2022-08-17T17:45:38.805Z,13.00
2022-08-17T17:48:27.484Z,13.00
2022-08-17T17:52:02.894Z,10.70
2022-08-17T17:55:56.009Z,8.50
2022-08-17T17:59:32.258Z,8.10
2022-08-17T18:02:51.400Z,10.40
2022-08-17T18:05:49.996Z,7.70
2022-08-17T18:09:43.032Z,8.40
2022-08-17T18:13:25.948Z,9.10
2022-08-17T18:16:53.805Z,8.90
2022-08-17T18:20:00.506Z,9.20
2022-08-17T18:23:44.032Z,10.50
2022-08-17T18:27:00.534Z,9.50
2022-08-17T18:31:04.334Z,9.70
2022-08-17T18:34:47.550Z,12.60
2022-08-17T18:38:16.752Z,9.50
2022-08-17T18:41:42.464Z,9.10
2022-08-17T18:45:03.464Z,8.80
2022-08-17T18:48:53.498Z,9.00
2022-08-17T18:52:48.479Z,9.40
2022-08-17T18:57:07.692Z,10.40
2022-08-17T19:00:55.374Z,9.20
2022-08-17T19:03:47.133Z,10.20
2022-08-17T19:07:15.127Z,10.60
2022-08-17T19:10:31.431Z,10.40
2022-08-17T19:13:31.745Z,10.90
2022-08-17T19:16:37.682Z,11.80
2022-08-17T19:20:15.405Z,10.50
2022-08-17T19:23:04.237Z,9.70
2022-08-17T19:26:54.009Z,10.40
2022-08-17T19:30:08.427Z,10.60
2022-08-17T19:36:21.105Z,11.30
2022-08-17T19:43:35.018Z,10.90
2022-08-17T19:47:03.402Z,11.00
2022-08-17T19:50:22.477Z,9.70
2022-08-17T19:54:05.731Z,10.60
2022-08-17T19:57:45.148Z,10.40
2022-08-17T20:01:34.674Z,10.90
2022-08-17T20:04:59.713Z,11.10
2022-08-17T20:08:09.755Z,10.80
2022-08-17T20:11:38.765Z,11.10
2022-08-17T20:15:32.974Z,12.10
2022-08-17T20:19:41.658Z,11.10
2022-08-17T20:23:29.413Z,11.80
2022-08-17T20:27:04.945Z,10.90
2022-08-17T20:30:27.242Z,11.60
2022-08-17T20:34:05.767Z,11.60
2022-08-17T20:37:43.280Z,11.10
2022-08-17T20:41:35.047Z,11.60
2022-08-17T20:45:01.769Z,10.80
2022-08-17T20:48:37.639Z,11.20
2022-08-17T20:52:15.873Z,10.90
2022-08-17T20:55:32.315Z,11.40
2022-08-17T20:58:56.460Z,12.00
2022-08-17T21:02:19.111Z,14.00
2022-08-17T21:05:24.606Z,13.80
2022-08-17T21:08:53.945Z,12.90
2022-08-17T21:12:19.605Z,12.10
2022-08-17T21:15:36.666Z,13.30
2022-08-17T21:18:59.410Z,12.00
2022-08-17T21:21:53.680Z,12.60
2022-08-17T21:24:51.334Z,13.20
2022-08-17T21:27:58.787Z,11.80
2022-08-17T21:31:17.049Z,12.10
2022-08-17T21:34:36.522Z,11.80
2022-08-17T21:37:42.213Z,12.80
2022-08-17T21:41:08.777Z,12.50
2022-08-17T21:44:31.272Z,13.40
2022-08-17T21:48:13.945Z,13.20
2022-08-17T21:51:16.484Z,12.10
2022-08-17T21:54:45.697Z,11.10
2022-08-17T21:58:13.544Z,11.30
2022-08-17T22:01:51.798Z,11.00
2022-08-17T22:05:38.645Z,11.70
2022-08-17T22:09:20.544Z,10.60
2022-08-17T22:12:54.394Z,11.30
2022-08-17T22:16:30.108Z,11.60
2022-08-17T22:20:02.057Z,12.00
2022-08-17T22:23:30.816Z,11.40
2022-08-17T22:27:02.751Z,11.20
2022-08-17T22:31:03.146Z,11.20
2022-08-17T22:35:09.780Z,11.40
2022-08-17T22:38:55.368Z,10.40
2022-08-17T22:42:36.509Z,11.50
2022-08-17T22:46:18.004Z,11.70
2022-08-17T22:50:24.643Z,12.40
2022-08-17T22:54:09.768Z,12.30
2022-08-17T22:57:55.018Z,12.50
2022-08-17T23:01:01.162Z,12.60
2022-08-17T23:04:54.673Z,12.70
2022-08-17T23:08:16.951Z,11.50
2022-08-17T23:11:49.491Z,11.30
2022-08-17T23:15:42.030Z,11.80
2022-08-17T23:19:37.319Z,11.70
2022-08-17T23:23:23.671Z,11.20
2022-08-17T23:27:20.307Z,12.60
2022-08-17T23:31:25.841Z,11.90
2022-08-17T23:35:39.904Z,12.00
2022-08-17T23:39:48.555Z,11.40
2022-08-17T23:43:35.737Z,12.80
2022-08-17T23:47:21.957Z,12.60
2022-08-17T23:50:57.699Z,12.60
2022-08-17T23:54:50.561Z,13.20
2022-08-17T23:58:12.056Z,11.90
